createdAt,value
2022-08-31T00:00:34.755Z,0.67
2022-08-31T00:03:20.705Z,0.50
2022-08-31T00:05:48.000Z,0.60
2022-08-31T00:08:15.772Z,0.70
2022-08-31T00:10:46.287Z,0.70
2022-08-31T00:13:14.113Z,0.57
2022-08-31T00:15:43.278Z,0.70
2022-08-31T00:18:10.798Z,0.77
2022-08-31T00:20:38.963Z,0.70
2022-08-31T00:23:12.886Z,0.90
2022-08-31T00:25:45.549Z,0.70
2022-08-31T00:28:15.141Z,0.60
2022-08-31T00:30:43.797Z,1.03
2022-08-31T00:33:12.590Z,0.90
2022-08-31T00:35:41.929Z,0.50
2022-08-31T00:38:12.109Z,0.77
2022-08-31T00:40:44.864Z,0.70
2022-08-31T00:43:54.057Z,0.80
2022-08-31T00:46:28.809Z,1.00
2022-08-31T00:49:10.650Z,0.80
2022-08-31T00:51:49.230Z,1.10
2022-08-31T00:54:29.701Z,0.80
2022-08-31T00:56:57.905Z,0.80
2022-08-31T00:59:27.481Z,0.60
2022-08-31T01:01:54.814Z,0.70
2022-08-31T01:04:22.270Z,0.83
2022-08-31T01:06:50.214Z,0.87
2022-08-31T01:09:19.242Z,0.90
2022-08-31T01:11:46.405Z,0.80
2022-08-31T01:14:14.221Z,0.67
2022-08-31T01:16:48.590Z,0.70
2022-08-31T01:20:24.178Z,0.67
2022-08-31T01:23:20.457Z,0.63
2022-08-31T01:25:51.043Z,0.90
2022-08-31T01:28:18.120Z,0.80
2022-08-31T01:31:08.975Z,0.90
2022-08-31T01:33:39.076Z,0.60
2022-08-31T01:36:11.165Z,0.60
2022-08-31T01:38:41.264Z,0.70
2022-08-31T01:41:08.756Z,0.70
2022-08-31T01:43:36.541Z,0.73
2022-08-31T01:46:10.788Z,0.80
2022-08-31T01:48:41.607Z,0.67
2022-08-31T01:51:12.549Z,0.80
2022-08-31T01:53:41.345Z,1.00
2022-08-31T01:56:24.768Z,0.90
2022-08-31T01:58:52.250Z,0.70
2022-08-31T02:01:33.420Z,0.70
2022-08-31T02:04:05.222Z,0.90
2022-08-31T02:06:33.076Z,0.73
2022-08-31T02:09:03.120Z,0.77
2022-08-31T02:11:30.122Z,0.77
2022-08-31T02:13:57.503Z,1.03
2022-08-31T02:16:25.031Z,0.70
2022-08-31T02:18:52.855Z,1.03
2022-08-31T02:21:20.339Z,0.83
2022-08-31T02:23:47.491Z,1.10
2022-08-31T02:26:14.582Z,0.80
2022-08-31T02:28:41.976Z,0.70
2022-08-31T02:31:09.101Z,0.90
2022-08-31T02:33:36.267Z,0.80
2022-08-31T02:36:04.406Z,0.90
2022-08-31T02:38:37.351Z,0.90
2022-08-31T02:41:06.434Z,1.20
2022-08-31T02:43:34.033Z,1.30
2022-08-31T02:46:02.083Z,0.80
2022-08-31T02:48:29.139Z,1.03
2022-08-31T02:51:07.290Z,0.83
2022-08-31T02:53:34.863Z,1.03
2022-08-31T02:56:02.846Z,1.30
2022-08-31T02:58:29.981Z,1.00
2022-08-31T03:00:56.978Z,0.87
2022-08-31T03:03:23.972Z,1.30
2022-08-31T03:05:51.237Z,1.10
2022-08-31T03:08:18.903Z,1.23
2022-08-31T03:10:46.221Z,1.23
2022-08-31T03:13:13.585Z,1.10
2022-08-31T03:15:44.921Z,1.00
2022-08-31T03:18:12.129Z,1.10
2022-08-31T03:20:39.379Z,1.10
2022-08-31T03:23:06.868Z,0.90
2022-08-31T03:25:33.986Z,1.00
2022-08-31T03:28:01.416Z,1.10
2022-08-31T03:30:29.721Z,1.37
2022-08-31T03:33:02.682Z,1.30
2022-08-31T03:35:30.980Z,1.13
2022-08-31T03:37:58.189Z,1.30
2022-08-31T03:40:25.306Z,1.40
2022-08-31T03:42:52.459Z,1.27
2022-08-31T03:45:20.368Z,1.80
2022-08-31T03:47:47.505Z,1.53
2022-08-31T03:50:16.109Z,1.60
2022-08-31T03:52:43.738Z,1.30
2022-08-31T03:55:12.752Z,1.80
2022-08-31T03:57:40.067Z,1.30
2022-08-31T04:00:09.206Z,1.80
2022-08-31T04:02:39.930Z,1.33
2022-08-31T04:05:08.407Z,1.20
2022-08-31T04:07:42.855Z,2.27
2022-08-31T04:10:14.517Z,1.40
2022-08-31T04:12:44.508Z,1.43
2022-08-31T04:15:12.449Z,1.30
2022-08-31T04:17:39.751Z,1.37
2022-08-31T04:20:07.957Z,1.87
2022-08-31T04:22:35.588Z,1.43
2022-08-31T04:25:06.383Z,1.30
2022-08-31T04:27:33.511Z,1.20
2022-08-31T04:30:02.353Z,2.07
2022-08-31T04:32:29.804Z,1.37
2022-08-31T04:34:57.201Z,2.00
2022-08-31T04:37:24.439Z,1.73
2022-08-31T04:39:52.411Z,2.10
2022-08-31T04:42:19.852Z,1.80
2022-08-31T04:44:47.210Z,1.83
2022-08-31T04:47:14.344Z,1.10
2022-08-31T04:49:41.557Z,1.70
2022-08-31T04:52:08.862Z,1.50
2022-08-31T04:54:35.940Z,2.00
2022-08-31T04:57:03.033Z,1.93
2022-08-31T04:59:30.072Z,1.60
2022-08-31T05:01:58.630Z,1.43
2022-08-31T05:04:29.385Z,1.67
2022-08-31T05:06:56.572Z,1.47
2022-08-31T05:09:24.432Z,1.40
2022-08-31T05:11:55.781Z,2.00
2022-08-31T05:14:24.533Z,1.70
2022-08-31T05:16:52.431Z,1.80
2022-08-31T05:19:21.054Z,1.50
2022-08-31T05:21:48.332Z,1.07
2022-08-31T05:24:22.435Z,1.67
2022-08-31T05:26:54.527Z,1.60
2022-08-31T05:29:25.990Z,1.20
2022-08-31T05:31:53.199Z,1.57
2022-08-31T05:34:22.858Z,1.17
2022-08-31T05:36:55.011Z,1.43
2022-08-31T05:39:22.579Z,1.20
2022-08-31T05:41:49.969Z,1.30
2022-08-31T05:44:21.221Z,1.40
2022-08-31T05:46:54.778Z,1.63
2022-08-31T05:49:32.305Z,1.20
2022-08-31T05:52:02.111Z,1.20
2022-08-31T05:54:29.089Z,1.10
2022-08-31T05:57:01.227Z,1.30
2022-08-31T05:59:31.071Z,1.30
2022-08-31T06:01:59.504Z,1.00
2022-08-31T06:04:28.769Z,0.70
2022-08-31T06:06:55.933Z,1.00
2022-08-31T06:09:23.033Z,1.00
2022-08-31T06:11:51.294Z,1.00
2022-08-31T06:14:18.737Z,1.10
2022-08-31T06:16:46.001Z,1.00
2022-08-31T06:19:13.801Z,0.60
2022-08-31T06:21:49.816Z,0.70
2022-08-31T06:24:19.650Z,0.70
2022-08-31T06:26:58.288Z,0.70
2022-08-31T06:29:29.566Z,0.80
2022-08-31T06:31:56.921Z,0.73
2022-08-31T06:34:32.367Z,0.50
2022-08-31T06:37:00.610Z,0.63
2022-08-31T06:39:27.863Z,0.60
2022-08-31T06:41:57.813Z,0.60
2022-08-31T06:44:25.104Z,0.50
2022-08-31T06:46:53.157Z,0.40
2022-08-31T06:49:20.783Z,0.40
2022-08-31T06:51:48.769Z,0.70
2022-08-31T06:54:29.580Z,0.40
2022-08-31T06:57:08.813Z,0.40
2022-08-31T06:59:41.670Z,0.40
2022-08-31T07:02:08.929Z,0.60
2022-08-31T07:04:39.379Z,0.70
2022-08-31T07:07:11.172Z,0.40
2022-08-31T07:09:41.161Z,0.77
2022-08-31T07:12:08.734Z,0.60
2022-08-31T07:14:36.465Z,0.50
2022-08-31T07:17:07.768Z,0.37
2022-08-31T07:19:35.313Z,0.40
2022-08-31T07:22:09.239Z,0.40
2022-08-31T07:24:40.403Z,0.40
2022-08-31T07:27:16.487Z,0.80
2022-08-31T07:29:47.890Z,0.43
2022-08-31T07:32:17.327Z,0.40
2022-08-31T07:34:44.434Z,0.40
2022-08-31T07:37:30.780Z,0.40
2022-08-31T07:40:23.037Z,0.50
2022-08-31T07:42:50.695Z,0.43
2022-08-31T07:45:29.441Z,0.37
2022-08-31T07:48:01.081Z,0.50
2022-08-31T07:50:31.703Z,0.43
2022-08-31T07:53:00.424Z,0.40
2022-08-31T07:55:29.102Z,0.43
2022-08-31T07:57:57.307Z,0.60
2022-08-31T08:00:33.151Z,0.30
2022-08-31T08:03:11.859Z,0.57
2022-08-31T08:05:41.723Z,0.23
2022-08-31T08:08:13.604Z,0.50
2022-08-31T08:10:46.712Z,0.63
2022-08-31T08:13:20.106Z,0.60
2022-08-31T08:15:48.581Z,0.40
2022-08-31T08:18:25.247Z,0.37
2022-08-31T08:20:52.804Z,0.30
2022-08-31T08:23:28.801Z,0.50
2022-08-31T08:26:03.681Z,0.30
2022-08-31T08:28:40.784Z,0.47
2022-08-31T08:31:19.226Z,0.35
2022-08-31T08:33:51.581Z,0.50
2022-08-31T08:36:20.726Z,0.40
2022-08-31T08:39:06.677Z,0.52
2022-08-31T08:41:38.042Z,0.30
2022-08-31T08:44:18.142Z,0.30
2022-08-31T08:46:53.849Z,0.30
2022-08-31T08:49:37.328Z,0.32
2022-08-31T08:52:26.948Z,0.57
2022-08-31T08:55:10.132Z,0.45
2022-08-31T08:57:46.334Z,0.40
2022-08-31T09:00:25.165Z,0.40
2022-08-31T09:03:33.331Z,0.57
2022-08-31T09:06:15.655Z,0.80
2022-08-31T09:13:09.055Z,0.30
2022-08-31T09:16:04.317Z,0.40
2022-08-31T09:21:53.750Z,0.52
2022-08-31T09:24:38.648Z,0.40
2022-08-31T09:27:19.273Z,0.35
2022-08-31T09:30:06.006Z,0.35
2022-08-31T09:32:39.003Z,0.45
2022-08-31T09:35:23.739Z,0.40
2022-08-31T09:38:41.331Z,0.55
2022-08-31T09:41:38.425Z,0.50
2022-08-31T09:44:43.669Z,0.60
2022-08-31T09:47:52.270Z,0.60
2022-08-31T09:51:01.002Z,0.50
2022-08-31T09:53:47.255Z,0.32
2022-08-31T09:56:19.829Z,0.30
2022-08-31T09:59:05.397Z,0.40
2022-08-31T10:01:47.362Z,0.38
2022-08-31T10:04:15.981Z,0.55
2022-08-31T10:07:06.156Z,0.50
2022-08-31T10:09:57.506Z,0.50
2022-08-31T10:12:42.625Z,0.25
2022-08-31T10:15:44.097Z,0.20
2022-08-31T10:18:56.038Z,0.47
2022-08-31T10:21:54.820Z,0.30
2022-08-31T10:24:46.236Z,0.30
2022-08-31T10:28:10.822Z,0.93
2022-08-31T10:31:30.207Z,0.30
2022-08-31T10:34:37.231Z,0.40
2022-08-31T10:37:20.529Z,0.28
2022-08-31T10:40:08.484Z,0.40
2022-08-31T10:42:59.189Z,0.43
2022-08-31T10:45:43.903Z,0.40
2022-08-31T10:48:13.080Z,0.40
2022-08-31T10:51:14.549Z,0.30
2022-08-31T10:58:02.406Z,0.40
2022-08-31T11:00:50.304Z,0.40
2022-08-31T11:04:08.800Z,0.45
2022-08-31T11:07:42.473Z,0.57
2022-08-31T11:10:47.297Z,0.40
2022-08-31T11:13:57.158Z,0.43
2022-08-31T11:17:11.995Z,0.30
2022-08-31T11:20:11.092Z,0.30
2022-08-31T11:23:19.638Z,0.22
2022-08-31T11:26:07.044Z,0.38
2022-08-31T11:29:02.978Z,0.40
2022-08-31T11:31:33.015Z,0.20
2022-08-31T11:34:22.748Z,0.30
2022-08-31T11:36:57.486Z,0.30
2022-08-31T11:39:31.041Z,0.40
2022-08-31T11:41:59.053Z,0.30
2022-08-31T11:44:39.492Z,0.35
2022-08-31T11:47:29.495Z,0.43
2022-08-31T11:50:39.133Z,0.60
2022-08-31T11:53:44.320Z,0.65
2022-08-31T11:56:15.285Z,0.32
2022-08-31T11:59:34.131Z,0.30
2022-08-31T12:02:24.107Z,0.38
2022-08-31T12:04:57.472Z,0.40
2022-08-31T12:07:36.090Z,0.40
2022-08-31T12:10:46.565Z,0.20
2022-08-31T12:14:04.041Z,0.20
2022-08-31T12:17:14.972Z,0.32
2022-08-31T12:20:01.063Z,0.30
2022-08-31T12:23:33.311Z,0.40
2022-08-31T12:27:07.578Z,0.30
2022-08-31T12:29:40.213Z,0.40
2022-08-31T12:32:36.071Z,0.30
2022-08-31T12:35:25.059Z,0.55
2022-08-31T12:38:16.495Z,0.30
2022-08-31T12:40:51.755Z,0.35
2022-08-31T12:43:49.192Z,0.40
2022-08-31T12:46:57.651Z,0.50
2022-08-31T12:50:11.101Z,0.20
2022-08-31T12:53:32.010Z,0.20
2022-08-31T12:56:31.530Z,0.32
2022-08-31T13:00:00.663Z,0.47
2022-08-31T13:02:33.039Z,0.40
2022-08-31T13:05:19.671Z,0.40
2022-08-31T13:07:49.838Z,0.30
2022-08-31T13:10:30.708Z,0.43
2022-08-31T13:13:22.511Z,0.30
2022-08-31T13:15:50.313Z,0.35
2022-08-31T13:18:34.455Z,0.30
2022-08-31T13:21:06.541Z,0.30
2022-08-31T13:23:42.934Z,0.50
2022-08-31T13:26:38.796Z,0.30
2022-08-31T13:29:23.668Z,0.20
2022-08-31T13:31:53.831Z,0.40
2022-08-31T13:34:21.228Z,0.30
2022-08-31T13:36:59.695Z,0.35
2022-08-31T13:39:39.473Z,0.40
2022-08-31T13:42:57.178Z,0.40
2022-08-31T13:45:38.622Z,0.43
2022-08-31T13:48:20.836Z,0.40
2022-08-31T13:50:58.168Z,0.30
2022-08-31T13:54:08.960Z,0.30
2022-08-31T13:56:59.132Z,0.38
2022-08-31T13:59:39.572Z,0.40
2022-08-31T14:02:30.945Z,0.20
2022-08-31T14:05:10.856Z,0.43
2022-08-31T14:07:45.811Z,0.40
2022-08-31T14:10:38.886Z,0.40
2022-08-31T14:13:35.009Z,0.60
2022-08-31T14:16:08.367Z,0.40
2022-08-31T14:18:47.594Z,0.30
2022-08-31T14:21:38.126Z,0.45
2022-08-31T14:24:12.010Z,0.40
2022-08-31T14:26:48.288Z,0.40
2022-08-31T14:29:19.095Z,0.30
2022-08-31T14:31:52.856Z,0.38
2022-08-31T14:34:30.431Z,0.20
2022-08-31T14:37:07.428Z,0.50
2022-08-31T14:39:46.107Z,0.40
2022-08-31T14:42:38.001Z,0.50
2022-08-31T14:45:18.867Z,0.50
2022-08-31T14:47:52.045Z,0.57
2022-08-31T14:50:25.422Z,0.50
2022-08-31T14:52:55.630Z,0.50
2022-08-31T14:55:31.669Z,0.40
2022-08-31T14:58:13.123Z,0.40
2022-08-31T15:00:53.207Z,0.50
2022-08-31T15:03:24.301Z,0.45
2022-08-31T15:05:51.523Z,0.47
2022-08-31T15:08:37.917Z,0.40
2022-08-31T15:11:11.310Z,0.60
2022-08-31T15:13:39.777Z,0.35
2022-08-31T15:16:08.336Z,0.40
2022-08-31T15:18:36.536Z,0.40
2022-08-31T15:21:11.061Z,0.40
2022-08-31T15:23:42.183Z,0.30
2022-08-31T15:27:08.200Z,0.20
2022-08-31T15:29:35.447Z,0.30
2022-08-31T15:32:46.464Z,0.30
2022-08-31T15:35:46.536Z,0.47
2022-08-31T15:38:14.463Z,0.60
2022-08-31T15:40:51.760Z,0.40
2022-08-31T15:43:22.742Z,0.30
2022-08-31T15:45:53.117Z,0.40
2022-08-31T15:48:39.586Z,0.40
2022-08-31T15:51:30.097Z,0.40
2022-08-31T15:54:21.340Z,0.40
2022-08-31T15:56:53.162Z,0.30
2022-08-31T15:59:55.404Z,0.30
2022-08-31T16:02:26.222Z,0.22
2022-08-31T16:05:17.794Z,0.32
2022-08-31T16:07:47.618Z,0.32
2022-08-31T16:10:19.379Z,0.40
2022-08-31T16:13:11.510Z,0.25
2022-08-31T16:15:48.414Z,0.40
2022-08-31T16:18:42.327Z,0.30
2022-08-31T16:21:09.434Z,0.50
2022-08-31T16:23:36.807Z,0.38
2022-08-31T16:29:12.914Z,0.60
2022-08-31T16:31:43.502Z,0.68
2022-08-31T16:34:13.510Z,0.43
2022-08-31T16:37:28.968Z,0.50
2022-08-31T16:39:56.547Z,0.47
2022-08-31T16:43:40.464Z,0.50
2022-08-31T16:47:59.146Z,0.45
2022-08-31T16:50:03.676Z,0.52
2022-08-31T16:53:01.534Z,0.40
2022-08-31T16:55:53.360Z,0.60
2022-08-31T16:59:09.559Z,0.45
2022-08-31T17:01:48.935Z,0.75
2022-08-31T17:04:50.855Z,0.70
2022-08-31T17:07:32.490Z,1.30
2022-08-31T17:10:10.863Z,0.50
2022-08-31T17:13:32.936Z,0.50
2022-08-31T17:16:48.425Z,0.63
2022-08-31T17:19:16.472Z,0.45
2022-08-31T17:21:50.657Z,0.60
2022-08-31T17:24:36.059Z,0.30
2022-08-31T17:27:16.911Z,0.25
2022-08-31T17:30:08.771Z,0.70
2022-08-31T17:35:54.003Z,0.57
2022-08-31T17:38:24.866Z,0.50
2022-08-31T17:41:17.493Z,0.63
2022-08-31T17:43:44.980Z,0.60
2022-08-31T17:46:17.145Z,0.70
2022-08-31T17:48:55.757Z,0.70
2022-08-31T17:51:41.025Z,0.52
2022-08-31T17:54:52.809Z,0.50
2022-08-31T17:57:25.044Z,0.50
2022-08-31T17:59:54.897Z,0.50
2022-08-31T18:02:34.676Z,0.52
2022-08-31T18:05:03.685Z,0.40
2022-08-31T18:07:37.285Z,0.50
2022-08-31T18:10:05.154Z,0.60
2022-08-31T18:12:32.461Z,0.40
2022-08-31T18:14:59.613Z,0.57
2022-08-31T18:17:27.238Z,0.50
2022-08-31T18:19:55.318Z,0.38
2022-08-31T18:22:22.329Z,0.50
2022-08-31T18:24:49.644Z,0.55
2022-08-31T18:27:16.670Z,0.43
2022-08-31T18:29:45.250Z,0.47
2022-08-31T18:32:12.755Z,0.55
2022-08-31T18:34:47.210Z,0.40
2022-08-31T18:37:20.988Z,0.80
2022-08-31T18:40:08.461Z,0.40
2022-08-31T18:42:57.193Z,0.50
2022-08-31T18:45:30.701Z,0.40
2022-08-31T18:48:35.187Z,0.40
2022-08-31T18:50:50.044Z,0.50
2022-08-31T18:53:27.656Z,0.57
2022-08-31T18:56:06.081Z,0.67
2022-08-31T18:58:33.476Z,0.47
2022-08-31T19:01:00.562Z,0.70
2022-08-31T19:03:29.055Z,0.30
2022-08-31T19:05:57.048Z,0.43
2022-08-31T19:08:29.169Z,0.40
2022-08-31T19:10:57.188Z,0.40
2022-08-31T19:13:29.614Z,0.50
2022-08-31T19:16:01.551Z,0.50
2022-08-31T19:18:30.998Z,0.28
2022-08-31T19:20:58.193Z,0.60
2022-08-31T19:23:26.248Z,0.47
2022-08-31T19:25:54.431Z,0.50
2022-08-31T19:28:22.004Z,0.50
2022-08-31T19:30:49.013Z,0.60
2022-08-31T19:33:16.530Z,0.53
2022-08-31T19:35:44.280Z,0.50
2022-08-31T19:38:11.976Z,0.50
2022-08-31T19:40:40.142Z,0.50
2022-08-31T19:45:55.586Z,0.53
2022-08-31T19:48:23.925Z,0.40
2022-08-31T19:50:52.385Z,0.40
2022-08-31T19:53:21.533Z,0.30
2022-08-31T19:55:53.393Z,0.40
2022-08-31T19:58:25.441Z,0.60
2022-08-31T20:01:00.777Z,0.40
2022-08-31T20:03:31.107Z,0.47
2022-08-31T20:05:59.744Z,0.50
2022-08-31T20:08:26.731Z,0.40
2022-08-31T20:10:53.795Z,0.50
2022-08-31T20:13:28.236Z,0.40
2022-08-31T20:15:56.171Z,0.50
2022-08-31T20:18:26.175Z,0.43
2022-08-31T20:20:55.026Z,0.37
2022-08-31T20:23:22.490Z,0.50
2022-08-31T20:25:54.906Z,0.40
2022-08-31T20:28:25.387Z,0.53
2022-08-31T20:31:00.197Z,0.33
2022-08-31T20:33:28.145Z,0.50
2022-08-31T20:35:58.392Z,0.40
2022-08-31T20:38:28.645Z,0.50
2022-08-31T20:40:56.027Z,0.60
2022-08-31T20:43:27.055Z,0.50
2022-08-31T20:45:54.233Z,0.40
2022-08-31T20:48:59.568Z,0.30
2022-08-31T20:51:26.599Z,0.40
2022-08-31T20:53:53.816Z,0.40
2022-08-31T20:56:26.143Z,0.40
2022-08-31T20:58:53.210Z,0.43
2022-08-31T21:01:21.619Z,0.40
2022-08-31T21:03:48.699Z,0.50
2022-08-31T21:06:15.690Z,0.40
2022-08-31T21:08:43.250Z,0.50
2022-08-31T21:11:17.138Z,0.40
2022-08-31T21:13:45.733Z,0.50
2022-08-31T21:16:14.909Z,0.37
2022-08-31T21:18:42.008Z,0.37
2022-08-31T21:21:17.692Z,0.50
2022-08-31T21:23:47.998Z,0.37
2022-08-31T21:26:26.422Z,0.43
2022-08-31T21:28:57.026Z,0.30
2022-08-31T21:31:28.914Z,0.60
2022-08-31T21:34:03.516Z,0.50
2022-08-31T21:36:33.850Z,0.83
2022-08-31T21:39:01.718Z,0.50
2022-08-31T21:41:29.709Z,0.40
2022-08-31T21:44:01.224Z,0.47
2022-08-31T21:46:29.752Z,0.27
2022-08-31T21:48:59.529Z,0.53
2022-08-31T21:51:38.082Z,0.40
2022-08-31T21:54:08.953Z,0.60
2022-08-31T21:56:46.080Z,0.40
2022-08-31T21:59:16.872Z,0.40
2022-08-31T22:01:45.185Z,0.40
2022-08-31T22:04:15.925Z,0.40
2022-08-31T22:06:43.612Z,0.50
2022-08-31T22:09:17.951Z,0.40
2022-08-31T22:11:51.551Z,0.43
2022-08-31T22:14:26.062Z,0.37
2022-08-31T22:16:57.108Z,0.40
2022-08-31T22:19:27.115Z,0.50
2022-08-31T22:22:01.466Z,0.40
2022-08-31T22:24:32.583Z,0.53
2022-08-31T22:27:08.307Z,0.40
2022-08-31T22:29:37.785Z,0.50
2022-08-31T22:32:15.147Z,0.40
2022-08-31T22:34:43.452Z,0.40
2022-08-31T22:37:13.954Z,0.47
2022-08-31T22:39:42.693Z,0.57
2022-08-31T22:42:11.865Z,0.40
2022-08-31T22:44:40.518Z,0.43
2022-08-31T22:47:07.580Z,0.50
2022-08-31T22:49:34.637Z,0.50
2022-08-31T22:52:02.165Z,0.40
2022-08-31T22:54:29.423Z,0.20
2022-08-31T22:56:56.842Z,0.30
2022-08-31T22:59:27.454Z,0.40
2022-08-31T23:02:03.614Z,0.67
2022-08-31T23:04:34.427Z,0.53
2022-08-31T23:07:04.240Z,0.57
2022-08-31T23:09:34.167Z,0.37
2022-08-31T23:12:04.951Z,0.40
2022-08-31T23:14:33.097Z,0.40
2022-08-31T23:17:09.028Z,0.57
2022-08-31T23:19:43.764Z,0.50
2022-08-31T23:22:15.259Z,0.33
2022-08-31T23:24:47.972Z,0.30
2022-08-31T23:27:19.749Z,0.30
2022-08-31T23:29:58.821Z,0.40
2022-08-31T23:32:29.057Z,0.57
2022-08-31T23:34:58.319Z,0.50
2022-08-31T23:37:27.357Z,0.50
2022-08-31T23:39:55.974Z,0.50
2022-08-31T23:42:26.258Z,0.57
2022-08-31T23:44:54.384Z,0.40
2022-08-31T23:47:29.251Z,0.40
2022-08-31T23:49:59.258Z,0.40
2022-08-31T23:52:29.806Z,0.40
2022-08-31T23:55:00.372Z,0.50
2022-08-31T23:57:32.735Z,0.40
